Time;durP1;ratioP1;P1;durP2;ratioP2;P2;SDS_P1;SDS_P2;PMS_P1;PMS_P2;Temp;Humidity;BMP_temperature;BMP_pressure;BME280_temperature;BME280_humidity;BME280_pressure;Samples;Min_cycle;Max_cycle;Signal;HPM_P1;HPM_P2
2022/12/05 00:00:26;;;;;;;10.10;5.93;;;;;;;;;;5091881;28;20445;-69
2022/12/05 00:02:55;;;;;;;9.73;5.23;;;;;;;;;;5090540;28;20477;-69
2022/12/05 00:05:22;;;;;;;7.47;4.57;;;;;;;;;;5091010;28;20936;-69
2022/12/05 00:07:49;;;;;;;11.33;6.50;;;;;;;;;;5089886;28;20447;-68
2022/12/05 00:10:16;;;;;;;11.73;6.93;;;;;;;;;;5084294;28;20448;-68
2022/12/05 00:12:43;;;;;;;11.93;6.80;;;;;;;;;;5077453;28;20456;-68
2022/12/05 00:15:11;;;;;;;7.93;4.67;;;;;;;;;;5074669;28;20453;-69
2022/12/05 00:17:39;;;;;;;11.43;6.13;;;;;;;;;;5091438;28;20456;-69
2022/12/05 00:20:08;;;;;;;9.10;5.60;;;;;;;;;;5090555;28;20452;-69
2022/12/05 00:22:36;;;;;;;7.40;5.23;;;;;;;;;;5090890;28;20572;-69
2022/12/05 00:25:04;;;;;;;9.47;5.17;;;;;;;;;;5090091;28;21251;-69
2022/12/05 00:27:31;;;;;;;8.63;3.83;;;;;;;;;;5090906;28;20791;-69
2022/12/05 00:29:58;;;;;;;8.60;5.10;;;;;;;;;;5088327;28;20463;-68
2022/12/05 00:32:25;;;;;;;13.33;6.30;;;;;;;;;;5081503;28;20550;-68
2022/12/05 00:34:52;;;;;;;10.37;5.20;;;;;;;;;;5090389;28;20445;-69
2022/12/05 00:37:21;;;;;;;8.27;4.10;;;;;;;;;;5090426;28;20456;-69
2022/12/05 00:39:48;;;;;;;8.93;4.80;;;;;;;;;;5089782;28;20452;-69
2022/12/05 00:42:15;;;;;;;9.13;5.20;;;;;;;;;;5090592;28;20831;-69
2022/12/05 00:44:42;;;;;;;6.67;4.27;;;;;;;;;;5090681;28;20445;-68
2022/12/05 00:47:09;;;;;;;11.20;5.50;;;;;;;;;;5088685;28;20442;-68
2022/12/05 00:49:36;;;;;;;8.20;3.10;;;;;;;;;;5090750;28;20467;-68
2022/12/05 00:52:03;;;;;;;11.37;6.27;;;;;;;;;;5089470;28;20637;-68
2022/12/05 00:54:32;;;;;;;8.63;4.53;;;;;;;;;;5086848;28;20455;-69
2022/12/05 00:56:59;;;;;;;8.30;5.00;;;;;;;;;;5075401;28;20508;-69
2022/12/05 00:59:26;;;;;;;13.73;4.53;;;;;;;;;;5086117;28;20443;-69
2022/12/05 01:01:53;;;;;;;13.57;5.17;;;;;;;;;;5080364;28;20964;-69
2022/12/05 01:04:21;;;;;;;13.17;6.60;;;;;;;;;;5086342;28;20446;-68
2022/12/05 01:06:49;;;;;;;10.03;5.30;;;;;;;;;;5089991;28;20438;-68
2022/12/05 01:09:19;;;;;;;8.97;4.50;;;;;;;;;;5082489;28;21009;-68
2022/12/05 01:11:48;;;;;;;7.40;4.50;;;;;;;;;;5087993;28;20778;-67
2022/12/05 01:14:16;;;;;;;8.63;3.97;;;;;;;;;;5090053;28;20458;-68
2022/12/05 01:16:44;;;;;;;14.90;6.87;;;;;;;;;;5090613;28;20475;-67
2022/12/05 01:19:13;;;;;;;8.33;3.70;;;;;;;;;;5089848;28;20908;-68
2022/12/05 01:21:40;;;;;;;12.30;4.90;;;;;;;;;;5078303;28;20488;-68
2022/12/05 01:24:08;;;;;;;15.00;5.33;;;;;;;;;;5074577;28;20502;-69
2022/12/05 01:26:35;;;;;;;4.87;3.50;;;;;;;;;;5087243;28;20902;-68
2022/12/05 01:29:04;;;;;;;10.63;6.00;;;;;;;;;;5082581;28;20962;-69
2022/12/05 01:31:32;;;;;;;13.40;5.43;;;;;;;;;;5094020;28;20452;-69
2022/12/05 01:34:00;;;;;;;6.63;4.43;;;;;;;;;;5087177;28;20462;-68
2022/12/05 01:36:27;;;;;;;6.07;4.17;;;;;;;;;;5082873;28;20461;-69
2022/12/05 01:38:55;;;;;;;6.60;4.00;;;;;;;;;;5082923;28;20460;-69
2022/12/05 01:41:24;;;;;;;8.03;3.60;;;;;;;;;;5093792;28;20520;-68
2022/12/05 01:43:55;;;;;;;8.63;4.30;;;;;;;;;;5085584;28;21012;-69
2022/12/05 01:46:24;;;;;;;6.90;4.27;;;;;;;;;;5080750;28;20548;-68
2022/12/05 01:48:52;;;;;;;10.47;2.73;;;;;;;;;;5093158;28;20514;-69
2022/12/05 01:51:19;;;;;;;8.60;4.27;;;;;;;;;;5080181;28;20453;-69
2022/12/05 01:53:46;;;;;;;8.63;4.83;;;;;;;;;;5088154;28;20454;-68
2022/12/05 01:56:14;;;;;;;6.27;3.60;;;;;;;;;;5093923;28;20463;-68
2022/12/05 01:58:42;;;;;;;8.57;4.67;;;;;;;;;;5093940;28;20448;-68
2022/12/05 02:01:09;;;;;;;5.60;3.50;;;;;;;;;;5087139;28;20471;-68
2022/12/05 02:03:38;;;;;;;6.70;3.80;;;;;;;;;;5085149;28;20479;-69
2022/12/05 02:06:05;;;;;;;9.13;5.00;;;;;;;;;;5089463;28;20767;-69
2022/12/05 02:08:33;;;;;;;4.90;3.93;;;;;;;;;;5086064;28;20453;-69
2022/12/05 02:11:00;;;;;;;11.93;4.30;;;;;;;;;;5092598;28;20446;-69
2022/12/05 02:13:33;;;;;;;6.50;3.50;;;;;;;;;;5083590;28;20536;-70
2022/12/05 02:16:01;;;;;;;9.73;3.73;;;;;;;;;;5079479;28;20781;-69
2022/12/05 02:18:41;;;;;;;8.70;4.10;;;5.70;1.00;;;;;;5082505;28;20472;-68
2022/12/05 02:21:29;;;;;;;10.53;4.40;;;4.10;1.00;;;;;;5092605;28;20527;-69
2022/12/05 02:24:15;;;;;;;7.30;4.03;;;4.00;1.00;;;;;;5091708;28;20464;-69
2022/12/05 02:26:53;;;;;;;9.70;4.43;;;4.10;1.00;;;;;;5092825;28;20451;-68
2022/12/05 02:30:06;;;;;;;7.87;5.00;;;4.10;1.00;;;;;;5091606;28;20456;-68
2022/12/05 02:32:46;;;;;;;10.10;4.77;;;4.20;1.00;;;;;;5073948;28;20463;-68
2022/12/05 02:35:23;;;;;;;6.30;4.00;;;4.20;1.00;;;;;;5086963;28;20448;-69
2022/12/05 02:37:56;;;;;;;6.50;3.30;;;4.20;1.00;;;;;;5077904;28;20525;-68
2022/12/05 02:40:30;;;;;;;7.87;4.30;;;4.10;1.00;;;;;;5090235;28;20448;-68
2022/12/05 02:43:03;;;;;;;9.20;4.43;;;4.20;1.00;;;;;;5091372;28;20483;-68
2022/12/05 02:45:35;;;;;;;7.87;4.07;;;4.40;1.00;;;;;;5091572;28;20437;-68
2022/12/05 02:48:02;;;;;;;8.30;3.30;;;4.50;1.00;;;;;;5088060;28;20815;-68
2022/12/05 02:50:33;;;;;;;7.17;4.10;;;4.40;1.00;;;;;;5084509;28;20453;-69
2022/12/05 02:53:05;;;;;;;7.93;4.13;;;4.30;1.00;;;;;;5080083;28;20442;-66
2022/12/05 02:55:33;;;;;;;9.83;3.93;;;4.30;1.00;;;;;;5090962;28;20944;-70
2022/12/05 02:58:04;;;;;;;12.70;7.40;;;4.40;1.00;;;;;;5079001;28;20450;-68
2022/12/05 03:00:34;;;;;;;10.50;5.07;;;4.40;1.00;;;;;;5092356;28;20449;-68
2022/12/05 03:03:01;;;;;;;6.57;3.13;;;4.30;1.00;;;;;;5076463;28;20480;-69
2022/12/05 03:05:37;;;;;;;9.13;5.40;;;4.20;1.00;;;;;;5091621;28;20451;-69
2022/12/05 03:08:06;;;;;;;8.67;4.73;;;4.30;1.00;;;;;;5091184;28;20456;-69
2022/12/05 03:10:34;;;;;;;8.37;3.83;;;4.30;1.00;;;;;;5081989;28;20455;-69
2022/12/05 03:13:07;;;;;;;8.57;4.70;;;4.40;1.00;;;;;;5077657;28;20458;-69
2022/12/05 03:15:39;;;;;;;12.07;6.70;;;4.50;1.00;;;;;;5085219;28;20453;-69
2022/12/05 03:18:11;;;;;;;8.67;4.20;;;4.70;1.00;;;;;;5091027;28;20456;-68
2022/12/05 03:20:42;;;;;;;12.03;6.50;;;4.80;1.00;;;;;;5077177;28;20969;-68
2022/12/05 03:23:13;;;;;;;9.60;5.37;;;4.80;1.00;;;;;;5083130;28;20523;-68
2022/12/05 03:25:50;;;;;;;12.63;5.33;;;4.70;1.00;;;;;;5090560;28;20804;-68
2022/12/05 03:28:24;;;;;;;8.97;4.73;;;4.60;1.00;;;;;;5091167;28;20445;-68
2022/12/05 03:30:55;;;;;;;13.30;4.13;;;4.60;1.00;;;;;;5076684;28;20435;-68
2022/12/05 03:33:25;;;;;;;8.40;4.43;;;4.70;1.00;;;;;;5084378;28;20451;-68
2022/12/05 03:36:01;;;;;;;6.20;3.87;;;4.80;1.00;;;;;;5082485;28;20446;-68
2022/12/05 03:38:33;;;;;;;14.73;5.10;;;4.70;1.00;;;;;;5092017;28;20450;-68
2022/12/05 03:41:06;;;;;;;8.40;5.23;;;4.70;1.00;;;;;;5091261;28;20444;-69
2022/12/05 03:43:40;;;;;;;13.10;5.10;;;4.60;1.00;;;;;;5085036;28;20972;-68
2022/12/05 03:46:15;;;;;;;10.43;5.60;;;4.60;1.00;;;;;;5089222;28;20560;-68
2022/12/05 03:48:51;;;;;;;8.50;3.00;;;4.60;1.00;;;;;;5091875;28;20489;-68
2022/12/05 03:51:21;;;;;;;9.30;4.40;;;4.50;1.00;;;;;;5091199;28;20977;-69
2022/12/05 03:53:53;;;;;;;11.27;3.50;;;4.50;1.00;;;;;;5085966;28;20445;-68
2022/12/05 03:56:24;;;;;;;9.17;3.97;;;4.60;1.00;;;;;;5090541;28;20461;-69
2022/12/05 03:58:56;;;;;;;13.23;5.40;;;4.70;1.00;;;;;;5091536;28;20437;-68
2022/12/05 04:01:28;;;;;;;12.60;6.10;;;4.70;1.00;;;;;;5091285;28;20916;-68
2022/12/05 04:03:58;;;;;;;11.07;4.73;;;4.70;1.00;;;;;;5089732;28;20813;-68
2022/12/05 04:06:29;;;;;;;12.60;4.40;;;4.60;1.00;;;;;;5079175;28;20449;-69
2022/12/05 04:08:59;;;;;;;10.97;4.50;;;4.70;1.00;;;;;;5087987;28;20499;-68
2022/12/05 04:11:29;;;;;;;15.93;5.07;;;4.70;1.00;;;;;;5090048;28;20939;-69
2022/12/05 04:14:00;;;;;;;11.77;5.20;;;4.90;1.00;;;;;;5078777;28;20450;-68
2022/12/05 04:19:24;;;;;;;11.30;6.20;;;5.10;1.00;;;;;;5079327;28;20465;-68
2022/12/05 04:21:54;;;;;;;11.93;4.40;;;5.00;1.00;;;;;;5089831;28;20757;-68
2022/12/05 04:27:22;;;;;;;9.03;4.50;;;4.80;1.00;;;;;;5090552;28;20409;-68
2022/12/05 04:30:02;;;;;;;11.30;5.33;;;4.80;1.00;;;;;;5088354;28;20456;-68
2022/12/05 04:32:44;;;;;;;11.87;5.50;;;4.70;1.00;;;;;;5080506;28;20458;-68
2022/12/05 04:35:15;;;;;;;10.13;4.60;;;4.90;1.00;;;;;;5088612;28;20443;-68
2022/12/05 04:37:47;;;;;;;9.80;4.50;;;4.90;1.00;;;;;;5090758;28;20456;-68
2022/12/05 04:40:20;;;;;;;10.43;5.50;;;4.90;1.00;;;;;;5087773;28;20452;-68
2022/12/05 04:42:49;;;;;;;9.17;4.77;;;5.00;1.00;;;;;;5070677;28;20447;-69
2022/12/05 04:45:19;;;;;;;8.77;4.27;;;5.00;1.00;;;;;;5085433;28;20441;-68
2022/12/05 04:47:51;;;;;;;6.60;4.17;;;5.00;1.00;;;;;;5089403;28;21030;-68
2022/12/05 04:50:20;;;;;;;13.00;6.00;;;5.10;1.00;;;;;;5090471;28;20453;-70
2022/12/05 04:52:53;;;;;;;6.57;4.07;;;5.00;1.00;;;;;;5088825;28;20468;-68
2022/12/05 04:55:24;;;;;;;6.67;3.90;;;5.00;1.00;;;;;;5080240;28;20502;-68
2022/12/05 04:57:59;;;;;;;7.50;3.80;;;5.00;1.00;;;;;;5083452;28;20500;-68
2022/12/05 05:00:29;;;;;;;9.27;4.90;;;5.10;1.00;;;;;;5087343;28;20442;-68
2022/12/05 05:03:05;;;;;;;9.97;4.37;;;5.00;1.00;;;;;;5089298;28;20832;-69
2022/12/05 05:05:33;;;;;;;8.00;4.13;;;5.00;1.00;;;;;;5089179;28;20447;-69
2022/12/05 05:08:00;;;;;;;7.90;4.93;;;4.90;1.00;;;;;;5078213;28;20449;-69
2022/12/05 05:10:33;;;;;;;12.30;4.97;;;4.90;1.00;;;;;;5089264;28;20478;-68
2022/12/05 05:12:59;;;;;;;12.73;6.63;;;5.00;1.00;;;;;;5089267;28;20447;-68
2022/12/05 05:15:26;;;;;;;7.23;3.93;;;5.20;98.00;;;;;;5088515;28;20447;-69
2022/12/05 05:17:53;;;;;;;7.57;4.30;;;5.00;1.00;;;;;;5084361;28;20965;-69
2022/12/05 05:20:25;;;;;;;8.50;4.57;;;5.00;1.00;;;;;;5085106;28;20788;-69
2022/12/05 05:22:53;;;;;;;7.33;3.90;;;5.10;1.00;;;;;;5085640;28;20452;-69
2022/12/05 05:25:20;;;;;;;6.70;4.10;;;5.10;1.00;;;;;;5075505;28;20443;-69
2022/12/05 05:27:51;;;;;;;10.13;4.70;;;5.00;1.00;;;;;;5080492;28;20450;-67
2022/12/05 05:30:19;;;;;;;5.73;4.07;;;5.00;1.00;;;;;;5083463;28;20460;-68
2022/12/05 05:32:46;;;;;;;9.17;5.40;;;4.90;1.00;;;;;;5072779;28;20448;-67
2022/12/05 05:35:14;;;;;;;6.87;4.27;;;4.90;1.00;;;;;;5079590;28;20450;-69
2022/12/05 05:37:42;;;;;;;6.10;4.10;;;5.00;1.00;;;;;;5082840;28;20452;-69
2022/12/05 05:40:12;;;;;;;14.60;4.10;;;5.00;1.00;;;;;;5088920;28;20461;-68
2022/12/05 05:42:43;;;;;;;8.73;4.60;;;5.00;1.00;;;;;;5089452;28;20457;-69
2022/12/05 05:45:11;;;;;;;11.93;4.47;;;5.10;1.00;;;;;;5072792;28;20478;-68
2022/12/05 05:47:38;;;;;;;4.00;3.10;;;5.00;1.00;;;;;;5080967;28;20481;-68
2022/12/05 05:50:07;;;;;;;7.53;4.10;;;4.90;1.00;;;;;;5077490;28;20443;-68
2022/12/05 05:52:34;;;;;;;8.87;4.03;;;5.00;1.00;;;;;;5076357;28;20490;-70
2022/12/05 05:55:04;;;;;;;9.00;4.70;;;4.90;1.00;;;;;;5085070;28;20461;-74
2022/12/05 05:57:31;;;;;;;9.20;4.63;;;4.90;1.00;;;;;;5084639;28;20451;-71
2022/12/05 05:59:58;;;;;;;11.23;5.50;;;5.00;1.00;;;;;;5086835;28;20457;-71
2022/12/05 06:02:24;;;;;;;9.20;4.13;;;5.00;1.00;;;;;;5088795;28;20445;-72
2022/12/05 06:04:51;;;;;;;12.67;5.23;;;5.10;1.00;;;;;;5092005;28;21019;-73
2022/12/05 06:07:18;;;;;;;6.63;4.23;;;5.00;1.00;;;;;;5089826;28;20477;-68
2022/12/05 06:09:45;;;;;;;11.70;5.90;;;5.00;1.00;;;;;;5093332;28;20487;-67
2022/12/05 06:12:13;;;;;;;12.70;5.70;;;5.10;1.00;;;;;;5090043;28;20448;-68
2022/12/05 06:14:40;;;;;;;7.53;4.17;;;5.00;1.00;;;;;;5083410;28;20458;-68
2022/12/05 06:17:07;;;;;;;7.50;4.70;;;4.90;1.00;;;;;;5093214;28;20506;-71
2022/12/05 06:19:34;;;;;;;9.30;4.10;;;4.80;1.00;;;;;;5093914;28;20454;-74
2022/12/05 06:22:00;;;;;;;8.90;5.10;;;4.90;1.00;;;;;;5092797;28;20525;-72
2022/12/05 06:24:27;;;;;;;8.43;5.50;;;5.00;1.00;;;;;;5093491;28;20473;-75
2022/12/05 06:26:54;;;;;;;13.10;6.10;;;5.10;1.00;;;;;;5088028;28;20456;-71
2022/12/05 06:29:22;;;;;;;6.87;4.37;;;5.10;1.00;;;;;;5090096;28;20489;-72
2022/12/05 06:31:49;;;;;;;14.77;5.37;;;5.00;1.00;;;;;;5092697;28;20458;-71
2022/12/05 06:34:16;;;;;;;7.63;3.90;;;4.90;1.00;;;;;;5093824;28;20453;-71
2022/12/05 06:36:43;;;;;;;8.47;5.10;;;4.90;1.00;;;;;;5094496;28;20447;-71
2022/12/05 06:39:10;;;;;;;8.10;5.13;;;5.00;1.00;;;;;;5093782;28;20447;-72
2022/12/05 06:41:37;;;;;;;9.17;4.97;;;4.90;1.00;;;;;;5093943;28;20447;-72
2022/12/05 06:44:04;;;;;;;6.63;4.70;;;5.00;1.00;;;;;;5093361;28;20780;-73
2022/12/05 06:46:32;;;;;;;8.90;4.50;;;4.80;1.00;;;;;;5093433;28;20446;-71
2022/12/05 06:48:59;;;;;;;11.00;5.60;;;4.70;1.00;;;;;;5093075;28;20664;-72
2022/12/05 06:51:26;;;;;;;10.50;5.10;;;5.20;1.00;;;;;;5093848;28;20454;-72
2022/12/05 06:53:53;;;;;;;6.70;5.37;;;5.10;1.00;;;;;;5093195;28;20457;-71
2022/12/05 06:56:20;;;;;;;8.67;5.40;;;;;;;;;;5093321;28;20451;-71
2022/12/05 06:58:49;;;;;;;5.63;3.73;;;5.20;1.00;;;;;;5092443;28;20451;-71
2022/12/05 07:04:04;;;;;;;6.73;4.00;;;4.70;1.00;;;;;;5092345;28;20542;-71
2022/12/05 07:06:31;;;;;;;7.97;4.63;;;4.70;1.00;;;;;;5093150;28;20450;-71
2022/12/05 07:08:58;;;;;;;5.80;3.97;;;4.60;1.00;;;;;;5082469;28;20472;-71
2022/12/05 07:11:25;;;;;;;7.73;4.80;;;4.80;1.00;;;;;;5088548;28;20457;-71
2022/12/05 07:13:52;;;;;;;5.70;3.80;;;4.70;1.00;;;;;;5092290;28;20438;-71
2022/12/05 07:16:19;;;;;;;12.67;6.10;;;4.60;1.00;;;;;;5091842;28;20461;-71
2022/12/05 07:18:46;;;;;;;9.43;4.70;;;4.70;1.00;;;;;;5091799;28;20547;-68
2022/12/05 07:21:15;;;;;;;7.90;4.23;;;4.80;1.00;;;;;;5093089;28;20455;-71
2022/12/05 07:23:44;;;;;;;7.37;4.63;;;4.80;1.00;;;;;;5092786;28;20502;-71
2022/12/05 07:26:12;;;;;;;9.20;5.07;;;4.90;1.00;;;;;;5092468;28;20458;-71
2022/12/05 07:28:39;;;;;;;8.00;4.60;;;5.00;1.00;;;;;;5092376;28;20459;-71
2022/12/05 07:31:08;;;;;;;6.43;3.63;;;4.90;1.00;;;;;;5091949;28;20454;-71
2022/12/05 07:33:35;;;;;;;7.13;4.77;;;4.90;1.00;;;;;;5092804;28;20448;-71
2022/12/05 07:36:03;;;;;;;9.50;4.87;;;5.00;1.00;;;;;;5092431;28;20450;-71
2022/12/05 07:38:32;;;;;;;4.50;3.33;;;5.00;1.00;;;;;;5092426;28;20456;-71
2022/12/05 07:40:58;;;;;;;5.30;3.83;;;5.00;1.00;;;;;;5092319;28;20441;-71
2022/12/05 07:43:25;;;;;;;10.27;5.23;;;5.10;1.00;;;;;;5092839;28;20459;-71
2022/12/05 07:45:52;;;;;;;10.53;4.07;;;5.10;1.00;;;;;;5091956;28;20478;-71
2022/12/05 07:48:19;;;;;;;8.37;4.87;;;5.20;1.00;;;;;;5092011;28;20495;-71
2022/12/05 07:50:46;;;;;;;7.03;4.03;;;5.20;1.00;;;;;;5091907;28;20451;-71
2022/12/05 07:53:12;;;;;;;6.13;3.60;;;5.30;1.00;;;;;;5092708;28;20451;-71
2022/12/05 07:55:41;;;;;;;11.70;3.90;;;5.30;1.00;;;;;;5092982;28;20482;-71
2022/12/05 07:58:07;;;;;;;7.53;5.10;;;5.30;1.00;;;;;;5091603;28;20446;-71
2022/12/05 08:00:34;;;;;;;6.13;4.00;;;5.40;1.00;;;;;;5092030;28;20447;-70
2022/12/05 08:03:02;;;;;;;8.03;4.57;;;5.40;1.00;;;;;;5091443;28;20945;-71
2022/12/05 08:05:29;;;;;;;5.73;4.07;;;5.20;1.00;;;;;;5091548;28;20494;-71
2022/12/05 08:07:56;;;;;;;8.23;5.13;;;5.40;1.00;;;;;;5089730;28;20443;-71
2022/12/05 08:10:23;;;;;;;8.83;4.53;;;5.30;1.00;;;;;;5078286;28;20473;-71
2022/12/05 08:12:51;;;;;;;6.67;4.30;;;5.30;1.00;;;;;;5091087;28;20452;-71
2022/12/05 08:15:18;;;;;;;10.87;4.80;;;5.30;1.00;;;;;;5091786;28;20852;-71
2022/12/05 08:17:45;;;;;;;11.07;5.30;;;5.30;1.00;;;;;;5090788;28;20454;-69
2022/12/05 08:20:12;;;;;;;9.17;5.00;;;5.50;1.00;;;;;;5091611;28;20462;-71
2022/12/05 08:22:39;;;;;;;6.40;4.37;;;5.50;1.00;;;;;;5091589;28;21144;-70
2022/12/05 08:25:07;;;;;;;5.67;3.80;;;5.40;1.00;;;;;;5090861;28;20858;-71
2022/12/05 08:27:34;;;;;;;7.83;3.20;;;5.50;1.00;;;;;;5090600;28;21080;-72
2022/12/05 08:30:02;;;;;;;5.90;4.30;;;5.50;1.00;;;;;;5090716;28;20455;-71
2022/12/05 08:32:29;;;;;;;8.17;3.40;;;5.50;1.00;;;;;;5091480;28;20454;-71
2022/12/05 08:34:55;;;;;;;8.30;4.73;;;5.60;1.00;;;;;;5091339;28;20455;-71
2022/12/05 08:37:22;;;;;;;9.33;4.60;;;5.50;1.00;;;;;;5091540;28;20455;-70
2022/12/05 08:39:49;;;;;;;7.07;3.57;;;5.70;1.00;;;;;;5091132;28;20977;-70
2022/12/05 08:42:16;;;;;;;5.53;3.83;;;5.70;1.00;;;;;;5091953;28;20455;-70
2022/12/05 08:44:42;;;;;;;8.33;5.80;;;5.60;1.00;;;;;;5091787;28;20480;-71
2022/12/05 08:47:11;;;;;;;5.90;4.03;;;5.60;1.00;;;;;;5091573;28;20458;-70
2022/12/05 08:49:37;;;;;;;5.90;4.60;;;5.50;1.00;;;;;;5091159;28;20781;-71
2022/12/05 08:52:04;;;;;;;5.13;3.33;;;5.60;1.00;;;;;;5091245;28;20475;-70
2022/12/05 08:54:31;;;;;;;6.47;3.97;;;5.60;1.00;;;;;;5091542;28;20449;-70
2022/12/05 08:56:58;;;;;;;8.40;5.00;;;5.60;1.00;;;;;;5091180;28;20455;-70
2022/12/05 08:59:25;;;;;;;5.77;3.47;;;5.80;1.00;;;;;;5091106;28;20446;-70
2022/12/05 09:01:52;;;;;;;6.80;3.90;;;5.80;1.00;;;;;;5090848;28;20447;-70
2022/12/05 09:04:20;;;;;;;4.83;3.50;;;5.90;1.00;;;;;;5091183;28;20490;-71
2022/12/05 09:06:47;;;;;;;8.37;3.33;;;5.80;1.00;;;;;;5090716;28;20453;-68
2022/12/05 09:09:13;;;;;;;6.30;3.50;;;5.90;1.00;;;;;;5079024;28;20462;-69
2022/12/05 09:11:45;;;;;;;5.13;3.10;;;5.90;1.00;;;;;;5088934;28;20454;-70
2022/12/05 09:14:12;;;;;;;6.37;4.13;;;6.00;1.00;;;;;;5090623;28;20530;-70
2022/12/05 09:16:39;;;;;;;8.37;5.30;;;;;;;;;;5090655;28;20459;-70
2022/12/05 09:19:07;;;;;;;6.30;3.40;;;;;;;;;;5089976;28;20464;-70
2022/12/05 09:21:35;;;;;;;7.10;4.20;;;6.00;1.00;;;;;;5090601;28;20452;-71
2022/12/05 09:24:02;;;;;;;4.57;3.10;;;6.80;1.00;;;;;;5089774;28;20897;-70
2022/12/05 09:26:29;;;;;;;7.03;3.40;;;7.00;99.90;;;;;;5090736;28;20814;-70
2022/12/05 09:28:57;;;;;;;5.20;3.67;;;6.50;26.70;;;;;;5089656;28;20473;-70
2022/12/05 09:31:26;;;;;;;8.00;4.13;;;6.40;99.90;;;;;;5090709;28;20464;-70
2022/12/05 09:33:53;;;;;;;4.10;2.83;;;6.50;99.90;;;;;;5077374;28;20452;-71
2022/12/05 09:36:23;;;;;;;5.40;4.83;;;6.40;99.90;;;;;;5091054;28;20492;-71
2022/12/05 09:38:52;;;;;;;8.07;3.40;;;6.40;99.90;;;;;;5091085;28;20446;-70
2022/12/05 09:44:31;;;;;;;3.60;3.30;;;6.30;99.90;;;;;;5094754;28;20420;-71
2022/12/05 09:47:01;;;;;;;5.43;3.57;;;6.40;99.90;;;;;;5094499;28;20455;-71
2022/12/05 09:49:30;;;;;;;6.60;2.80;;;6.30;99.90;;;;;;5094732;28;20464;-71
2022/12/05 09:51:58;;;;;;;8.00;4.07;;;6.30;99.90;;;;;;5094363;28;20461;-71
2022/12/05 09:54:28;;;;;;;6.80;4.00;;;6.30;99.90;;;;;;5094934;28;20458;-71
2022/12/05 09:56:55;;;;;;;4.57;2.87;;;6.30;99.90;;;;;;5093876;28;20452;-71
2022/12/05 09:59:21;;;;;;;4.87;3.67;;;6.40;99.90;;;;;;5094366;28;20456;-71
2022/12/05 10:01:55;;;;;;;3.60;3.10;;;6.50;99.90;;;;;;5094129;28;20455;-71
2022/12/05 10:04:43;;;;;;;4.67;2.70;;;6.50;99.90;;;;;;5094284;28;20449;-71
2022/12/05 10:07:17;;;;;;;5.07;3.70;;;6.60;99.90;;;;;;5093673;28;20836;-71
2022/12/05 10:09:56;;;;;;;3.83;2.63;;;6.60;99.90;;;;;;5079979;28;20464;-69
2022/12/05 10:12:47;;;;;;;7.07;3.30;;;6.60;99.90;;;;;;5094350;28;20448;-72
2022/12/05 10:15:19;;;;;;;4.27;2.53;;;6.70;99.90;;;;;;5094243;28;20490;-71
2022/12/05 10:17:52;;;;;;;4.60;3.97;;;6.60;99.90;;;;;;5093413;28;20456;-68
2022/12/05 10:20:24;;;;;;;4.70;3.03;;;6.70;99.90;;;;;;5094132;28;20456;-71
2022/12/05 10:22:56;;;;;;;8.63;2.30;;;6.80;99.90;;;;;;5093093;28;20944;-71
2022/12/05 10:25:27;;;;;;;5.27;3.90;;;6.80;99.90;;;;;;5093632;28;20480;-71
2022/12/05 10:27:57;;;;;;;5.43;2.67;;;6.90;83.00;;;;;;5092913;28;20443;-71
2022/12/05 10:30:27;;;;;;;3.53;2.57;;;6.80;31.20;;;;;;5093810;28;20448;-71
2022/12/05 10:32:56;;;;;;;4.03;2.40;;;7.00;1.00;;;;;;5093107;28;20458;-71
2022/12/05 10:35:26;;;;;;;6.20;2.77;;;7.00;1.00;;;;;;5094019;28;20468;-71
2022/12/05 10:37:56;;;;;;;4.57;2.63;;;7.30;1.00;;;;;;5093057;28;20452;-71
2022/12/05 10:40:36;;;;;;;2.53;2.23;;;7.40;13.50;;;;;;5081110;28;20448;-71
2022/12/05 10:43:04;;;;;;;3.20;2.30;;;7.50;1.00;;;;;;5093390;28;20452;-73
2022/12/05 10:45:32;;;;;;;3.73;2.13;;;7.50;1.00;;;;;;5093403;28;20487;-71
2022/12/05 10:47:59;;;;;;;6.03;2.90;;;7.60;1.00;;;;;;5092105;28;20925;-71
2022/12/05 10:50:30;;;;;;;3.13;2.20;;;7.90;99.90;;;;;;5092855;28;20455;-71
2022/12/05 10:53:00;;;;;;;3.10;1.87;;;8.00;1.00;;;;;;5092916;28;20493;-71
2022/12/05 10:55:34;;;;;;;2.20;1.63;;;7.90;1.00;;;;;;5093774;28;20444;-72
2022/12/05 10:58:12;;;;;;;2.37;1.63;;;8.10;1.00;;;;;;5092335;28;20880;-71
2022/12/05 11:00:43;;;;;;;2.00;1.80;;;8.10;99.90;;;;;;5093634;28;20532;-71
2022/12/05 11:03:24;;;;;;;3.70;1.53;;;7.90;46.90;;;;;;5093642;28;20457;-71
2022/12/05 11:05:51;;;;;;;3.27;2.00;;;8.00;99.90;;;;;;5092206;28;20878;-71
2022/12/05 11:08:24;;;;;;;2.53;1.60;;;8.00;99.90;;;;;;5088698;28;20453;-71
2022/12/05 11:11:01;;;;;;;1.87;1.67;;;8.10;99.90;;;;;;5082929;28;20459;-71
2022/12/05 11:13:29;;;;;;;3.83;2.03;;;8.00;45.80;;;;;;5092765;28;20444;-71
2022/12/05 11:15:56;;;;;;;2.30;1.67;;;8.10;1.00;;;;;;5092211;28;20498;-71
2022/12/05 11:18:28;;;;;;;3.00;2.00;;;8.20;1.00;;;;;;5092675;28;20791;-71
2022/12/05 11:20:56;;;;;;;2.90;2.60;;;8.20;1.00;;;;;;5092342;28;20441;-71
2022/12/05 11:23:26;;;;;;;3.70;2.87;;;8.20;1.00;;;;;;5092702;28;20798;-71
2022/12/05 11:25:55;;;;;;;3.80;2.00;;;8.10;99.90;;;;;;5092149;28;20480;-71
2022/12/05 11:28:36;;;;;;;4.23;2.33;;;8.10;1.00;;;;;;5092241;28;20797;-71
2022/12/05 11:31:07;;;;;;;3.03;2.10;;;8.00;1.00;;;;;;5091745;28;21020;-71
2022/12/05 11:33:35;;;;;;;4.07;2.00;;;8.00;99.90;;;;;;5092680;28;20445;-72
2022/12/05 11:36:10;;;;;;;2.63;1.30;;;8.00;99.90;;;;;;5092377;28;20452;-71
2022/12/05 11:38:37;;;;;;;3.00;1.83;;;8.00;99.90;;;;;;5092645;28;20810;-71
2022/12/05 11:41:21;;;;;;;2.07;1.60;;;8.00;99.90;;;;;;5092047;28;20725;-71
2022/12/05 11:44:04;;;;;;;3.80;2.33;;;8.00;1.00;;;;;;5092496;28;20448;-71
2022/12/05 11:46:40;;;;;;;3.20;2.07;;;8.00;99.90;;;;;;5092417;28;20491;-71
2022/12/05 11:49:25;;;;;;;1.97;1.60;;;8.00;1.00;;;;;;5091789;28;20822;-71
2022/12/05 11:52:05;;;;;;;2.57;1.67;;;8.20;1.00;;;;;;5091901;28;20454;-71
2022/12/05 11:54:54;;;;;;;2.40;1.40;;;8.30;99.90;;;;;;5092683;28;20529;-71
2022/12/05 11:57:37;;;;;;;4.67;1.53;;;8.10;1.00;;;;;;5092324;28;20452;-71
2022/12/05 12:00:21;;;;;;;4.27;2.00;;;8.20;99.90;;;;;;5091817;28;20570;-71
2022/12/05 12:03:15;;;;;;;2.43;1.50;;;8.30;1.00;;;;;;5091407;28;20443;-69
2022/12/05 12:05:50;;;;;;;1.83;1.60;;;8.40;1.00;;;;;;5058369;28;20826;-71
2022/12/05 12:08:23;;;;;;;3.53;1.67;;;8.30;1.00;;;;;;5087869;28;20455;-71
2022/12/05 12:11:01;;;;;;;3.43;1.90;;;8.20;99.90;;;;;;5081566;28;20886;-71
2022/12/05 12:13:43;;;;;;;2.40;1.90;;;8.20;25.70;;;;;;5091975;28;20462;-71
2022/12/05 12:16:16;;;;;;;3.27;1.37;;;8.30;1.00;;;;;;5091339;28;20527;-71
2022/12/05 12:18:59;;;;;;;2.20;1.27;;;8.30;1.00;;;;;;5091288;28;20546;-70
2022/12/05 12:21:31;;;;;;;1.70;1.50;;;8.20;1.00;;;;;;5091841;28;20744;-71
2022/12/05 12:24:08;;;;;;;3.40;1.50;;;8.10;1.00;;;;;;5090635;28;20444;-73
2022/12/05 12:26:43;;;;;;;3.97;1.83;;;8.20;1.00;;;;;;5091639;28;20475;-72
2022/12/05 12:29:25;;;;;;;2.83;1.77;;;8.10;1.00;;;;;;5090594;28;20956;-71
2022/12/05 12:32:07;;;;;;;2.03;1.37;;;8.20;1.00;;;;;;5090727;28;20444;-71
2022/12/05 12:35:05;;;;;;;2.10;1.73;;;8.30;1.00;;;;;;5091680;28;20533;-71
2022/12/05 12:37:43;;;;;;;2.87;1.80;;;8.30;1.00;;;;;;5065072;28;20449;-71
2022/12/05 12:40:16;;;;;;;2.30;1.60;;;8.20;1.00;;;;;;5091823;28;20454;-71
2022/12/05 12:42:54;;;;;;;1.43;1.23;;;8.30;1.00;;;;;;5091865;28;20793;-71
2022/12/05 12:45:36;;;;;;;2.37;1.20;;;8.30;4.10;;;;;;5091288;28;20565;-71
2022/12/05 12:48:19;;;;;;;3.10;2.00;;;8.20;18.10;;;;;;5090031;28;20494;-71
2022/12/05 12:50:52;;;;;;;4.63;2.43;;;8.30;1.00;;;;;;5090950;28;20797;-69
2022/12/05 12:53:40;;;;;;;2.50;1.87;;;8.40;1.00;;;;;;5091300;28;20448;-71
2022/12/05 12:56:18;;;;;;;1.93;1.50;;;8.50;1.00;;;;;;5090581;28;20455;-71
2022/12/05 12:58:52;;;;;;;3.60;1.40;;;8.50;1.00;;;;;;5090473;28;20441;-69
2022/12/05 13:01:31;;;;;;;1.90;1.40;;;8.60;1.00;;;;;;5090944;28;20448;-71
2022/12/05 13:04:02;;;;;;;1.67;1.47;;;8.40;1.00;;;;;;5090507;28;20481;-71
2022/12/05 13:06:34;;;;;;;1.63;1.33;;;8.50;1.00;;;;;;5090844;28;20525;-71
2022/12/05 13:09:04;;;;;;;1.87;1.70;;;8.40;1.00;;;;;;5080065;28;20812;-71
2022/12/05 13:11:37;;;;;;;2.27;1.70;;;8.50;1.00;;;;;;5087544;28;20443;-71
2022/12/05 13:14:11;;;;;;;3.13;2.30;;;8.40;1.00;;;;;;5089634;28;21030;-71
2022/12/05 13:16:42;;;;;;;1.77;1.37;;;8.40;1.00;;;;;;5091005;28;20759;-72
2022/12/05 13:19:23;;;;;;;1.67;1.53;;;8.40;1.00;;;;;;5089730;28;20463;-71
2022/12/05 13:21:50;;;;;;;4.53;2.30;;;8.40;1.00;;;;;;5090206;28;20447;-71
2022/12/05 13:24:20;;;;;;;2.03;1.20;;;8.40;1.00;;;;;;5091019;28;20445;-71
2022/12/05 13:26:49;;;;;;;2.30;1.70;;;8.30;1.00;;;;;;5090258;28;20478;-69
2022/12/05 13:29:21;;;;;;;3.40;2.10;;;8.20;1.00;;;;;;5090814;28;20459;-71
2022/12/05 13:31:51;;;;;;;4.93;1.60;;;8.10;1.00;;;;;;5089660;28;20441;-70
2022/12/05 13:34:44;;;;;;;2.70;1.80;;;8.20;8.80;;;;;;5090775;28;20455;-71
2022/12/05 13:42:56;;;;;;;3.67;1.93;;;8.10;99.90;;;;;;5089938;28;20417;-68
2022/12/05 13:45:23;;;;;;;3.67;1.77;;;8.20;39.40;;;;;;5090792;28;20447;-73
2022/12/05 13:48:02;;;;;;;2.70;1.80;;;8.20;43.80;;;;;;5089257;28;20479;-71
2022/12/05 13:50:35;;;;;;;1.93;1.50;;;8.10;1.00;;;;;;5090697;28;20465;-71
2022/12/05 13:53:05;;;;;;;1.60;1.17;;;8.00;1.00;;;;;;5090040;28;20471;-72
2022/12/05 13:55:35;;;;;;;1.43;1.10;;;8.00;1.00;;;;;;5091180;28;20453;-71